sensor_id;sensor_type;location;lat;lon;timestamp;pressure;altitude;pressure_sealevel;temperature;humidity
69622;BME280;56841;55.964;37.674;2022-07-09T00:01:03;99615.75;;;18.08;100.00
69622;BME280;56841;55.964;37.674;2022-07-09T00:03:29;99607.69;;;18.14;100.00
69622;BME280;56841;55.964;37.674;2022-07-09T00:05:55;99609.38;;;18.09;100.00
69622;BME280;56841;55.964;37.674;2022-07-09T00:08:21;99614.13;;;18.07;100.00
69622;BME280;56841;55.964;37.674;2022-07-09T00:10:46;99603.91;;;17.97;100.00
69622;BME280;56841;55.964;37.674;2022-07-09T00:13:12;99608.84;;;17.93;100.00
69622;BME280;56841;55.964;37.674;2022-07-09T00:15:38;99595.16;;;17.83;100.00
69622;BME280;56841;55.964;37.674;2022-07-09T00:18:04;99603.00;;;17.78;100.00
69622;BME280;56841;55.964;37.674;2022-07-09T00:20:30;99601.13;;;17.85;100.00
69622;BME280;56841;55.964;37.674;2022-07-09T00:22:55;99603.13;;;17.90;100.00
69622;BME280;56841;55.964;37.674;2022-07-09T00:25:21;99603.94;;;17.90;100.00
69622;BME280;56841;55.964;37.674;2022-07-09T00:27:47;99607.38;;;17.97;100.00
69622;BME280;56841;55.964;37.674;2022-07-09T00:30:13;99609.19;;;18.04;100.00
69622;BME280;56841;55.964;37.674;2022-07-09T00:32:39;99616.78;;;18.07;100.00
69622;BME280;56841;55.964;37.674;2022-07-09T00:35:05;99593.78;;;18.06;100.00
69622;BME280;56841;55.964;37.674;2022-07-09T00:37:31;99593.78;;;18.06;100.00
69622;BME280;56841;55.964;37.674;2022-07-09T00:39:57;99606.75;;;18.02;100.00
69622;BME280;56841;55.964;37.674;2022-07-09T00:42:23;99598.00;;;17.88;100.00
69622;BME280;56841;55.964;37.674;2022-07-09T00:44:51;99607.69;;;17.83;100.00
69622;BME280;56841;55.964;37.674;2022-07-09T00:47:17;99598.88;;;17.75;100.00
69622;BME280;56841;55.964;37.674;2022-07-09T00:49:43;99608.34;;;17.71;100.00
69622;BME280;56841;55.964;37.674;2022-07-09T00:52:12;99610.63;;;17.68;100.00
69622;BME280;56841;55.964;37.674;2022-07-09T00:54:39;99613.69;;;17.71;100.00
69622;BME280;56841;55.964;37.674;2022-07-09T00:57:08;99613.28;;;17.74;100.00
69622;BME280;56841;55.964;37.674;2022-07-09T00:59:35;99615.75;;;17.76;100.00
69622;BME280;56841;55.964;37.674;2022-07-09T01:02:02;99610.22;;;17.71;100.00
69622;BME280;56841;55.964;37.674;2022-07-09T01:04:27;99612.88;;;17.71;100.00
69622;BME280;56841;55.964;37.674;2022-07-09T01:06:53;99605.72;;;17.65;100.00
69622;BME280;56841;55.964;37.674;2022-07-09T01:09:20;99607.97;;;17.68;100.00
69622;BME280;56841;55.964;37.674;2022-07-09T01:11:47;99610.03;;;17.66;100.00
69622;BME280;56841;55.964;37.674;2022-07-09T01:14:13;99611.75;;;17.47;100.00
69622;BME280;56841;55.964;37.674;2022-07-09T01:16:39;99607.06;;;17.36;100.00
69622;BME280;56841;55.964;37.674;2022-07-09T01:19:06;99618.19;;;17.26;100.00
69622;BME280;56841;55.964;37.674;2022-07-09T01:21:34;99619.06;;;17.20;100.00
69622;BME280;56841;55.964;37.674;2022-07-09T01:24:00;99621.34;;;17.16;100.00
69622;BME280;56841;55.964;37.674;2022-07-09T01:26:27;99620.91;;;17.13;100.00
69622;BME280;56841;55.964;37.674;2022-07-09T01:28:53;99613.50;;;17.21;100.00
69622;BME280;56841;55.964;37.674;2022-07-09T01:31:19;99619.03;;;17.26;100.00
69622;BME280;56841;55.964;37.674;2022-07-09T01:33:45;99618.00;;;17.27;100.00
69622;BME280;56841;55.964;37.674;2022-07-09T01:36:11;99612.03;;;17.25;100.00
69622;BME280;56841;55.964;37.674;2022-07-09T01:38:37;99616.38;;;17.26;100.00
69622;BME280;56841;55.964;37.674;2022-07-09T01:41:03;99605.44;;;17.35;100.00
69622;BME280;56841;55.964;37.674;2022-07-09T01:43:29;99613.84;;;17.38;100.00
69622;BME280;56841;55.964;37.674;2022-07-09T01:45:56;99605.00;;;17.44;100.00
69622;BME280;56841;55.964;37.674;2022-07-09T01:48:23;99608.50;;;17.38;100.00
69622;BME280;56841;55.964;37.674;2022-07-09T01:50:49;99616.09;;;17.41;100.00
69622;BME280;56841;55.964;37.674;2022-07-09T01:53:14;99626.09;;;17.52;100.00
69622;BME280;56841;55.964;37.674;2022-07-09T01:55:40;99613.94;;;17.63;100.00
69622;BME280;56841;55.964;37.674;2022-07-09T01:58:06;99614.72;;;17.70;100.00
69622;BME280;56841;55.964;37.674;2022-07-09T02:00:32;99613.91;;;17.70;100.00
69622;BME280;56841;55.964;37.674;2022-07-09T02:02:57;99607.34;;;17.66;100.00
69622;BME280;56841;55.964;37.674;2022-07-09T02:05:23;99614.72;;;17.70;100.00
69622;BME280;56841;55.964;37.674;2022-07-09T02:07:49;99604.88;;;17.71;100.00
69622;BME280;56841;55.964;37.674;2022-07-09T02:10:15;99613.69;;;17.71;100.00
69622;BME280;56841;55.964;37.674;2022-07-09T02:12:41;99610.41;;;17.69;100.00
69622;BME280;56841;55.964;37.674;2022-07-09T02:15:08;99605.69;;;17.78;100.00
69622;BME280;56841;55.964;37.674;2022-07-09T02:17:36;99606.50;;;17.72;100.00
69622;BME280;56841;55.964;37.674;2022-07-09T02:20:03;99604.41;;;17.81;100.00
69622;BME280;56841;55.964;37.674;2022-07-09T02:22:29;99607.28;;;17.86;100.00
69622;BME280;56841;55.964;37.674;2022-07-09T02:24:55;99608.84;;;17.93;100.00
69622;BME280;56841;55.964;37.674;2022-07-09T02:27:21;99608.81;;;18.00;99.61
69622;BME280;56841;55.964;37.674;2022-07-09T02:29:47;99618.25;;;18.03;98.34
69622;BME280;56841;55.964;37.674;2022-07-09T02:32:12;99615.31;;;18.11;97.76
69622;BME280;56841;55.964;37.674;2022-07-09T02:34:38;99621.28;;;18.13;97.81
69622;BME280;56841;55.964;37.674;2022-07-09T02:37:05;99615.69;;;18.14;96.91
69622;BME280;56841;55.964;37.674;2022-07-09T02:39:31;99624.97;;;18.12;95.56
69622;BME280;56841;55.964;37.674;2022-07-09T02:41:57;99627.19;;;18.15;96.13
69622;BME280;56841;55.964;37.674;2022-07-09T02:44:23;99628.44;;;18.19;95.95
69622;BME280;56841;55.964;37.674;2022-07-09T02:46:49;99631.81;;;18.33;94.80
69622;BME280;56841;55.964;37.674;2022-07-09T02:49:15;99637.97;;;18.33;93.93
69622;BME280;56841;55.964;37.674;2022-07-09T02:51:42;99636.06;;;18.40;93.21
69622;BME280;56841;55.964;37.674;2022-07-09T02:54:08;99640.38;;;18.41;92.89
69622;BME280;56841;55.964;37.674;2022-07-09T02:56:34;99634.34;;;18.46;92.32
69622;BME280;56841;55.964;37.674;2022-07-09T02:59:00;99633.91;;;18.49;92.68
69622;BME280;56841;55.964;37.674;2022-07-09T03:01:26;99642.19;;;18.47;92.61
69622;BME280;56841;55.964;37.674;2022-07-09T03:03:52;99638.47;;;18.48;91.04
69622;BME280;56841;55.964;37.674;2022-07-09T03:06:18;99627.31;;;18.52;91.43
69622;BME280;56841;55.964;37.674;2022-07-09T03:08:43;99643.13;;;18.60;90.67
69622;BME280;56841;55.964;37.674;2022-07-09T03:11:09;99637.47;;;18.68;88.89
69622;BME280;56841;55.964;37.674;2022-07-09T03:13:35;99642.94;;;18.80;89.16
69622;BME280;56841;55.964;37.674;2022-07-09T03:16:02;99637.53;;;18.86;88.37
69622;BME280;56841;55.964;37.674;2022-07-09T03:18:29;99637.09;;;18.89;88.97
69622;BME280;56841;55.964;37.674;2022-07-09T03:20:55;99630.47;;;18.92;88.95
69622;BME280;56841;55.964;37.674;2022-07-09T03:23:21;99627.00;;;18.91;88.64
69622;BME280;56841;55.964;37.674;2022-07-09T03:25:47;99620.09;;;18.84;89.36
69622;BME280;56841;55.964;37.674;2022-07-09T03:28:13;99626.63;;;18.88;89.30
69622;BME280;56841;55.964;37.674;2022-07-09T03:30:39;99626.38;;;18.89;88.86
69622;BME280;56841;55.964;37.674;2022-07-09T03:33:05;99625.63;;;19.01;87.59
69622;BME280;56841;55.964;37.674;2022-07-09T03:35:30;99621.56;;;18.98;88.46
69622;BME280;56841;55.964;37.674;2022-07-09T03:37:56;99628.84;;;19.09;87.36
69622;BME280;56841;55.964;37.674;2022-07-09T03:40:23;99619.34;;;19.13;87.03
69622;BME280;56841;55.964;37.674;2022-07-09T03:42:49;99622.66;;;19.27;86.01
69622;BME280;56841;55.964;37.674;2022-07-09T03:45:15;99616.59;;;19.38;86.13
69622;BME280;56841;55.964;37.674;2022-07-09T03:47:41;99615.28;;;19.41;85.86
69622;BME280;56841;55.964;37.674;2022-07-09T03:50:07;99611.63;;;19.54;85.38
69622;BME280;56841;55.964;37.674;2022-07-09T03:52:33;99607.66;;;19.63;84.27
69622;BME280;56841;55.964;37.674;2022-07-09T03:54:59;99614.09;;;19.74;82.81
69622;BME280;56841;55.964;37.674;2022-07-09T03:57:25;99621.13;;;19.86;84.13
69622;BME280;56841;55.964;37.674;2022-07-09T03:59:52;99614.75;;;19.99;84.07
69622;BME280;56841;55.964;37.674;2022-07-09T04:02:17;99623.84;;;20.10;83.25
69622;BME280;56841;55.964;37.674;2022-07-09T04:04:46;99625.63;;;20.16;81.23
69622;BME280;56841;55.964;37.674;2022-07-09T04:07:12;99622.03;;;20.22;82.08
69622;BME280;56841;55.964;37.674;2022-07-09T04:09:38;99611.78;;;20.31;82.43
69622;BME280;56841;55.964;37.674;2022-07-09T04:12:04;99606.06;;;20.39;82.64
69622;BME280;56841;55.964;37.674;2022-07-09T04:14:30;99599.94;;;20.50;82.43
69622;BME280;56841;55.964;37.674;2022-07-09T04:16:55;99594.22;;;20.58;80.72
69622;BME280;56841;55.964;37.674;2022-07-09T04:19:21;99590.38;;;20.66;79.21
69622;BME280;56841;55.964;37.674;2022-07-09T04:21:47;99584.78;;;20.79;78.03
69622;BME280;56841;55.964;37.674;2022-07-09T04:24:13;99582.44;;;20.83;77.20
69622;BME280;56841;55.964;37.674;2022-07-09T04:26:42;99578.44;;;20.97;77.20
69622;BME280;56841;55.964;37.674;2022-07-09T04:29:09;99572.81;;;20.99;78.59
69622;BME280;56841;55.964;37.674;2022-07-09T04:31:36;99585.75;;;21.02;76.60
69622;BME280;56841;55.964;37.674;2022-07-09T04:34:02;99588.69;;;21.00;76.10
69622;BME280;56841;55.964;37.674;2022-07-09T04:36:28;99587.28;;;20.98;75.21
69622;BME280;56841;55.964;37.674;2022-07-09T04:38:54;99596.03;;;21.05;74.86
69622;BME280;56841;55.964;37.674;2022-07-09T04:41:21;99599.78;;;21.04;75.78
69622;BME280;56841;55.964;37.674;2022-07-09T04:43:47;99597.31;;;21.02;74.82
69622;BME280;56841;55.964;37.674;2022-07-09T04:46:13;99596.84;;;21.05;75.29
69622;BME280;56841;55.964;37.674;2022-07-09T04:48:39;99603.06;;;21.06;76.58
69622;BME280;56841;55.964;37.674;2022-07-09T04:51:05;99604.31;;;21.15;74.89
69622;BME280;56841;55.964;37.674;2022-07-09T04:53:31;99600.78;;;21.26;76.57
69622;BME280;56841;55.964;37.674;2022-07-09T04:55:57;99602.19;;;21.41;76.32
69622;BME280;56841;55.964;37.674;2022-07-09T04:58:22;99608.56;;;21.51;74.01
69622;BME280;56841;55.964;37.674;2022-07-09T05:00:48;99603.38;;;21.62;74.36
69622;BME280;56841;55.964;37.674;2022-07-09T05:03:14;99603.31;;;21.73;73.98
69622;BME280;56841;55.964;37.674;2022-07-09T05:05:40;99598.84;;;21.79;75.32
69622;BME280;56841;55.964;37.674;2022-07-09T05:08:06;99597.16;;;21.90;73.77
69622;BME280;56841;55.964;37.674;2022-07-09T05:10:31;99596.69;;;21.93;72.99
69622;BME280;56841;55.964;37.674;2022-07-09T05:12:57;99603.78;;;21.99;73.10
69622;BME280;56841;55.964;37.674;2022-07-09T05:15:24;99589.94;;;22.07;72.29
69622;BME280;56841;55.964;37.674;2022-07-09T05:17:50;99597.25;;;22.12;71.48
69622;BME280;56841;55.964;37.674;2022-07-09T05:20:16;99590.13;;;22.17;70.56
69622;BME280;56841;55.964;37.674;2022-07-09T05:22:42;99587.69;;;22.33;71.03
69622;BME280;56841;55.964;37.674;2022-07-09T05:25:08;99591.75;;;22.35;70.71
69622;BME280;56841;55.964;37.674;2022-07-09T05:27:41;99594.91;;;22.49;71.16
69622;BME280;56841;55.964;37.674;2022-07-09T05:30:08;99591.56;;;22.59;68.74
69622;BME280;56841;55.964;37.674;2022-07-09T05:32:34;99592.06;;;22.56;65.66
69622;BME280;56841;55.964;37.674;2022-07-09T05:35:00;99590.75;;;22.58;65.08
69622;BME280;56841;55.964;37.674;2022-07-09T05:37:26;99589.84;;;22.69;65.09
69622;BME280;56841;55.964;37.674;2022-07-09T05:39:52;99595.34;;;22.80;64.87
69622;BME280;56841;55.964;37.674;2022-07-09T05:42:18;99589.56;;;22.88;64.33
69622;BME280;56841;55.964;37.674;2022-07-09T05:44:43;99589.16;;;22.96;65.38
69622;BME280;56841;55.964;37.674;2022-07-09T05:47:10;99588.09;;;22.97;65.04
69622;BME280;56841;55.964;37.674;2022-07-09T05:49:35;99586.97;;;22.93;64.41
69622;BME280;56841;55.964;37.674;2022-07-09T05:52:01;99580.66;;;23.04;66.09
69622;BME280;56841;55.964;37.674;2022-07-09T05:54:28;99584.22;;;23.10;65.64
69622;BME280;56841;55.964;37.674;2022-07-09T05:56:53;99580.66;;;23.04;64.49
69622;BME280;56841;55.964;37.674;2022-07-09T05:59:19;99583.84;;;23.01;64.32
69622;BME280;56841;55.964;37.674;2022-07-09T06:01:45;99579.28;;;23.02;65.01
69622;BME280;56841;55.964;37.674;2022-07-09T06:04:11;99580.84;;;22.98;64.22
69622;BME280;56841;55.964;37.674;2022-07-09T06:06:37;99571.06;;;23.13;63.06
69622;BME280;56841;55.964;37.674;2022-07-09T06:09:02;99574.19;;;23.27;64.08
69622;BME280;56841;55.964;37.674;2022-07-09T06:11:29;99564.91;;;23.40;61.73
69622;BME280;56841;55.964;37.674;2022-07-09T06:13:55;99562.78;;;23.42;59.70
69622;BME280;56841;55.964;37.674;2022-07-09T06:16:21;99560.50;;;23.56;60.80
69622;BME280;56841;55.964;37.674;2022-07-09T06:18:47;99565.47;;;23.69;59.12
69622;BME280;56841;55.964;37.674;2022-07-09T06:21:13;99568.75;;;23.71;58.61
69622;BME280;56841;55.964;37.674;2022-07-09T06:23:38;99568.00;;;23.54;57.73
69622;BME280;56841;55.964;37.674;2022-07-09T06:26:04;99565.28;;;23.49;57.89
69622;BME280;56841;55.964;37.674;2022-07-09T06:28:30;99561.19;;;23.46;59.44
69622;BME280;56841;55.964;37.674;2022-07-09T06:30:56;99561.63;;;23.38;57.81
69622;BME280;56841;55.964;37.674;2022-07-09T06:33:22;99558.03;;;23.54;57.46
69622;BME280;56841;55.964;37.674;2022-07-09T06:35:48;99552.16;;;23.57;57.93
69622;BME280;56841;55.964;37.674;2022-07-09T06:38:13;99556.59;;;23.69;57.79
69622;BME280;56841;55.964;37.674;2022-07-09T06:40:39;99549.66;;;23.73;57.78
69622;BME280;56841;55.964;37.674;2022-07-09T06:43:05;99550.75;;;23.77;56.33
69622;BME280;56841;55.964;37.674;2022-07-09T06:45:33;99551.91;;;23.86;55.83
69622;BME280;56841;55.964;37.674;2022-07-09T06:47:59;99551.38;;;23.89;55.41
69622;BME280;56841;55.964;37.674;2022-07-09T06:50:25;99550.56;;;23.88;55.00
69622;BME280;56841;55.964;37.674;2022-07-09T06:52:51;99551.22;;;24.01;54.44
69622;BME280;56841;55.964;37.674;2022-07-09T06:55:16;99544.03;;;24.11;55.05
69622;BME280;56841;55.964;37.674;2022-07-09T06:57:42;99544.31;;;24.15;53.94
69622;BME280;56841;55.964;37.674;2022-07-09T07:00:08;99538.66;;;24.17;53.93
69622;BME280;56841;55.964;37.674;2022-07-09T07:02:34;99536.63;;;24.34;53.32
69622;BME280;56841;55.964;37.674;2022-07-09T07:05:00;99540.81;;;24.52;53.60
69622;BME280;56841;55.964;37.674;2022-07-09T07:07:26;99547.09;;;24.68;52.74
69622;BME280;56841;55.964;37.674;2022-07-09T07:09:52;99540.13;;;24.72;52.26
69622;BME280;56841;55.964;37.674;2022-07-09T07:12:18;99538.00;;;24.84;52.62
69622;BME280;56841;55.964;37.674;2022-07-09T07:14:43;99536.97;;;24.95;51.91
69622;BME280;56841;55.964;37.674;2022-07-09T07:17:09;99526.16;;;24.90;53.40
69622;BME280;56841;55.964;37.674;2022-07-09T07:19:35;99539.34;;;24.81;54.06
69622;BME280;56841;55.964;37.674;2022-07-09T07:22:01;99541.72;;;24.68;54.23
69622;BME280;56841;55.964;37.674;2022-07-09T07:24:27;99536.75;;;24.49;54.19
69622;BME280;56841;55.964;37.674;2022-07-09T07:26:53;99538.25;;;24.35;55.02
69622;BME280;56841;55.964;37.674;2022-07-09T07:29:19;99529.31;;;24.29;55.45
69622;BME280;56841;55.964;37.674;2022-07-09T07:31:46;99527.13;;;24.26;54.66
69622;BME280;56841;55.964;37.674;2022-07-09T07:34:12;99517.66;;;24.24;53.12
69622;BME280;56841;55.964;37.674;2022-07-09T07:36:38;99514.97;;;24.24;53.53
69622;BME280;56841;55.964;37.674;2022-07-09T07:39:04;99516.34;;;24.26;53.49
69622;BME280;56841;55.964;37.674;2022-07-09T07:41:30;99518.81;;;24.33;54.74
69622;BME280;56841;55.964;37.674;2022-07-09T07:43:56;99521.13;;;24.51;54.80
69622;BME280;56841;55.964;37.674;2022-07-09T07:46:23;99523.63;;;24.68;54.47
69622;BME280;56841;55.964;37.674;2022-07-09T07:48:49;99534.78;;;24.82;54.24
69622;BME280;56841;55.964;37.674;2022-07-09T07:51:16;99535.41;;;25.04;54.73
69622;BME280;56841;55.964;37.674;2022-07-09T07:53:42;99539.28;;;25.24;53.34
69622;BME280;56841;55.964;37.674;2022-07-09T07:56:08;99539.84;;;25.36;51.79
69622;BME280;56841;55.964;37.674;2022-07-09T07:58:34;99531.97;;;25.24;51.93
69622;BME280;56841;55.964;37.674;2022-07-09T08:01:01;99530.59;;;25.12;53.15
69622;BME280;56841;55.964;37.674;2022-07-09T08:03:27;99530.94;;;25.31;53.74
69622;BME280;56841;55.964;37.674;2022-07-09T08:05:53;99532.22;;;25.18;53.03
69622;BME280;56841;55.964;37.674;2022-07-09T08:08:19;99527.94;;;25.27;51.80
69622;BME280;56841;55.964;37.674;2022-07-09T08:10:46;99539.56;;;25.33;50.62
69622;BME280;56841;55.964;37.674;2022-07-09T08:13:15;99538.50;;;25.39;50.70
69622;BME280;56841;55.964;37.674;2022-07-09T08:15:41;99539.31;;;25.39;50.41
69622;BME280;56841;55.964;37.674;2022-07-09T08:18:07;99541.22;;;25.49;50.65
69622;BME280;56841;55.964;37.674;2022-07-09T08:20:41;99538.72;;;25.17;51.53
69622;BME280;56841;55.964;37.674;2022-07-09T08:23:08;99546.47;;;25.03;51.59
69622;BME280;56841;55.964;37.674;2022-07-09T08:25:34;99546.63;;;24.76;52.42
69622;BME280;56841;55.964;37.674;2022-07-09T08:28:00;99543.72;;;24.40;53.34
69622;BME280;56841;55.964;37.674;2022-07-09T08:30:26;99542.44;;;24.16;54.53
69622;BME280;56841;55.964;37.674;2022-07-09T08:32:52;99543.97;;;24.06;54.71
69622;BME280;56841;55.964;37.674;2022-07-09T08:35:18;99544.47;;;23.98;54.79
69622;BME280;56841;55.964;37.674;2022-07-09T08:37:44;99549.50;;;23.89;56.51
69622;BME280;56841;55.964;37.674;2022-07-09T08:40:10;99544.38;;;23.88;57.32
69622;BME280;56841;55.964;37.674;2022-07-09T08:42:37;99550.16;;;23.70;59.11
69622;BME280;56841;55.964;37.674;2022-07-09T08:45:07;99553.31;;;23.39;61.39
69622;BME280;56841;55.964;37.674;2022-07-09T08:47:34;99556.00;;;23.39;62.14
69622;BME280;56841;55.964;37.674;2022-07-09T08:50:00;99550.69;;;23.01;63.19
69622;BME280;56841;55.964;37.674;2022-07-09T08:52:29;99558.13;;;22.71;64.07
69622;BME280;56841;55.964;37.674;2022-07-09T08:54:55;99557.72;;;22.63;65.13
69622;BME280;56841;55.964;37.674;2022-07-09T08:57:21;99550.16;;;22.60;63.86
69622;BME280;56841;55.964;37.674;2022-07-09T08:59:47;99550.50;;;22.85;63.65
69622;BME280;56841;55.964;37.674;2022-07-09T09:02:13;99553.84;;;22.92;62.43
69622;BME280;56841;55.964;37.674;2022-07-09T09:04:42;99548.59;;;23.03;60.87
69622;BME280;56841;55.964;37.674;2022-07-09T09:07:15;99552.66;;;23.05;60.25
69622;BME280;56841;55.964;37.674;2022-07-09T09:09:41;99548.53;;;22.98;60.48
69622;BME280;56841;55.964;37.674;2022-07-09T09:12:08;99546.78;;;23.08;59.58
69622;BME280;56841;55.964;37.674;2022-07-09T09:14:34;99548.41;;;23.09;58.05
69622;BME280;56841;55.964;37.674;2022-07-09T09:17:05;99546.78;;;23.08;56.00
69622;BME280;56841;55.964;37.674;2022-07-09T09:19:31;99538.25;;;23.16;55.52
69622;BME280;56841;55.964;37.674;2022-07-09T09:21:57;99538.84;;;23.24;55.29
69622;BME280;56841;55.964;37.674;2022-07-09T09:24:25;99540.91;;;23.38;55.45
69622;BME280;56841;55.964;37.674;2022-07-09T09:26:52;99542.06;;;23.70;54.52
69622;BME280;56841;55.964;37.674;2022-07-09T09:29:21;99541.16;;;23.91;50.78
69622;BME280;56841;55.964;37.674;2022-07-09T09:31:47;99552.91;;;24.07;49.58
69622;BME280;56841;55.964;37.674;2022-07-09T09:34:21;99555.75;;;23.95;49.79
69622;BME280;56841;55.964;37.674;2022-07-09T09:36:51;99549.50;;;23.89;51.17
69622;BME280;56841;55.964;37.674;2022-07-09T09:39:21;99555.06;;;23.78;53.29
69622;BME280;56841;55.964;37.674;2022-07-09T09:41:55;99546.69;;;23.74;53.97
69622;BME280;56841;55.964;37.674;2022-07-09T09:44:26;99543.00;;;23.85;54.42
69622;BME280;56841;55.964;37.674;2022-07-09T09:46:54;99539.25;;;23.86;55.18
69622;BME280;56841;55.964;37.674;2022-07-09T09:49:21;99536.97;;;24.05;54.78
69622;BME280;56841;55.964;37.674;2022-07-09T09:52:04;99526.66;;;23.97;54.58
69622;BME280;56841;55.964;37.674;2022-07-09T09:54:35;99523.56;;;24.16;54.12
69622;BME280;56841;55.964;37.674;2022-07-09T09:57:06;99518.66;;;24.12;55.22
69622;BME280;56841;55.964;37.674;2022-07-09T09:59:33;99529.50;;;23.85;56.04
69622;BME280;56841;55.964;37.674;2022-07-09T10:02:04;99522.41;;;23.74;57.08
69622;BME280;56841;55.964;37.674;2022-07-09T10:04:32;99516.78;;;23.49;58.21
69622;BME280;56841;55.964;37.674;2022-07-09T10:06:59;99518.31;;;23.45;59.07
69622;BME280;56841;55.964;37.674;2022-07-09T10:09:25;99514.88;;;23.49;59.55
69622;BME280;56841;55.964;37.674;2022-07-09T10:11:50;99514.94;;;23.54;60.08
69622;BME280;56841;55.964;37.674;2022-07-09T10:16:42;99509.88;;;23.90;61.65
69622;BME280;56841;55.964;37.674;2022-07-09T10:19:08;99503.75;;;24.00;59.41
69622;BME280;56841;55.964;37.674;2022-07-09T10:21:37;99498.59;;;23.93;63.35
69622;BME280;56841;55.964;37.674;2022-07-09T10:24:04;99505.47;;;23.79;63.41
69622;BME280;56841;55.964;37.674;2022-07-09T10:26:43;99505.84;;;23.65;61.62
69622;BME280;56841;55.964;37.674;2022-07-09T10:31:48;99488.03;;;23.59;69.95
69622;BME280;56841;55.964;37.674;2022-07-09T10:37:02;99494.59;;;23.69;67.83
69622;BME280;56841;55.964;37.674;2022-07-09T10:39:29;99500.56;;;23.71;69.15
69622;BME280;56841;55.964;37.674;2022-07-09T10:42:17;99505.72;;;23.77;67.88
69622;BME280;56841;55.964;37.674;2022-07-09T10:44:44;99491.47;;;23.82;72.00
69622;BME280;56841;55.964;37.674;2022-07-09T10:47:12;99493.13;;;23.83;69.10
69622;BME280;56841;55.964;37.674;2022-07-09T10:49:38;99485.94;;;23.67;69.14
69622;BME280;56841;55.964;37.674;2022-07-09T10:52:05;99479.75;;;23.66;68.89
69622;BME280;56841;55.964;37.674;2022-07-09T10:54:33;99474.09;;;23.68;67.94
69622;BME280;56841;55.964;37.674;2022-07-09T10:56:59;99482.75;;;23.42;69.94
69622;BME280;56841;55.964;37.674;2022-07-09T10:59:25;99479.69;;;23.61;69.54
69622;BME280;56841;55.964;37.674;2022-07-09T11:01:52;99466.38;;;23.76;66.84
69622;BME280;56841;55.964;37.674;2022-07-09T11:04:32;99452.75;;;23.93;68.08
69622;BME280;56841;55.964;37.674;2022-07-09T11:06:59;99447.03;;;24.32;65.05
69622;BME280;56841;55.964;37.674;2022-07-09T11:09:26;99443.09;;;24.45;62.36
69622;BME280;56841;55.964;37.674;2022-07-09T11:11:53;99444.00;;;24.71;62.27
69622;BME280;56841;55.964;37.674;2022-07-09T11:14:19;99428.75;;;25.33;58.77
69622;BME280;56841;55.964;37.674;2022-07-09T11:16:57;99420.94;;;25.46;59.77
69622;BME280;56841;55.964;37.674;2022-07-09T11:19:29;99412.56;;;25.53;53.47
69622;BME280;56841;55.964;37.674;2022-07-09T11:22:02;99406.88;;;25.55;53.08
69622;BME280;56841;55.964;37.674;2022-07-09T11:24:28;99402.53;;;25.53;53.33
69622;BME280;56841;55.964;37.674;2022-07-09T11:26:55;99397.97;;;25.44;52.51
69622;BME280;56841;55.964;37.674;2022-07-09T11:29:21;99391.72;;;25.84;51.71
69622;BME280;56841;55.964;37.674;2022-07-09T11:34:15;99390.81;;;26.24;49.83
69622;BME280;56841;55.964;37.674;2022-07-09T11:36:45;99389.13;;;26.44;50.08
69622;BME280;56841;55.964;37.674;2022-07-09T11:39:31;99376.25;;;26.75;50.49
69622;BME280;56841;55.964;37.674;2022-07-09T11:41:58;99377.75;;;26.42;51.72
69622;BME280;56841;55.964;37.674;2022-07-09T11:47:09;99374.41;;;25.95;54.74
69622;BME280;56841;55.964;37.674;2022-07-09T11:49:41;99375.78;;;25.57;56.54
69622;BME280;56841;55.964;37.674;2022-07-09T11:52:23;99376.06;;;25.45;57.35
69622;BME280;56841;55.964;37.674;2022-07-09T11:55:08;99367.97;;;25.50;57.88
69622;BME280;56841;55.964;37.674;2022-07-09T11:57:37;99366.88;;;25.41;57.49
69622;BME280;56841;55.964;37.674;2022-07-09T12:00:08;99363.63;;;25.49;57.77
69622;BME280;56841;55.964;37.674;2022-07-09T12:02:39;99364.16;;;25.67;58.60
69622;BME280;56841;55.964;37.674;2022-07-09T12:05:08;99359.69;;;26.22;56.48
69622;BME280;56841;55.964;37.674;2022-07-09T12:07:35;99349.03;;;26.46;55.95
69622;BME280;56841;55.964;37.674;2022-07-09T12:10:02;99350.28;;;26.04;55.98
69622;BME280;56841;55.964;37.674;2022-07-09T12:12:31;99340.34;;;25.69;55.16
69622;BME280;56841;55.964;37.674;2022-07-09T12:14:57;99334.16;;;25.43;56.11
69622;BME280;56841;55.964;37.674;2022-07-09T12:17:27;99326.91;;;25.18;56.19
69622;BME280;56841;55.964;37.674;2022-07-09T12:19:54;99326.84;;;24.92;56.68
69622;BME280;56841;55.964;37.674;2022-07-09T12:22:21;99322.00;;;24.89;57.27
69622;BME280;56841;55.964;37.674;2022-07-09T12:24:49;99324.16;;;24.87;57.22
69622;BME280;56841;55.964;37.674;2022-07-09T12:27:15;99319.59;;;25.03;57.11
69622;BME280;56841;55.964;37.674;2022-07-09T12:29:41;99319.88;;;25.27;56.14
69622;BME280;56841;55.964;37.674;2022-07-09T12:32:07;99313.88;;;25.66;55.91
69622;BME280;56841;55.964;37.674;2022-07-09T12:34:34;99310.84;;;25.88;54.72
69622;BME280;56841;55.964;37.674;2022-07-09T12:37:00;99312.75;;;25.92;53.33
69622;BME280;56841;55.964;37.674;2022-07-09T12:39:26;99306.50;;;25.97;52.61
69622;BME280;56841;55.964;37.674;2022-07-09T12:41:52;99300.50;;;26.15;51.88
69622;BME280;56841;55.964;37.674;2022-07-09T12:44:18;99304.19;;;26.79;51.64
69622;BME280;56841;55.964;37.674;2022-07-09T12:46:44;99304.53;;;27.65;48.73
69622;BME280;56841;55.964;37.674;2022-07-09T12:49:12;99303.38;;;28.95;45.69
69622;BME280;56841;55.964;37.674;2022-07-09T12:51:37;99297.41;;;28.79;46.06
69622;BME280;56841;55.964;37.674;2022-07-09T12:54:03;99300.31;;;28.26;46.73
69622;BME280;56841;55.964;37.674;2022-07-09T12:56:29;99303.69;;;27.40;49.13
69622;BME280;56841;55.964;37.674;2022-07-09T12:58:55;99290.84;;;26.88;50.80